KPUB/PUB METAR and TAF weather

Enter ICAO airport designator
Station Type Date Time Source
KPUB METAR 2019/08/24 20:53 UTC NOAA

KPUB 242053Z 14010KT 10SM CLR 31/12 A2995 RMK AO2 SLP077 T03060117 56012


Station Type Date Time Source
KPUB Decoded METAR 2019/08/24 20:53 UTC NOAA

Station name not available
Aug 24, 2019 - 04:53 PM EDT / 2019.08.24 2053 UTC
Wind: from the SE (140 degrees) at 12 MPH (10 KT):0
Visibility: 10 mile(s):0
Sky conditions: clear
Temperature: 87.1 F (30.6 C)
Dew Point: 53.1 F (11.7 C)
Relative Humidity: 31%
Pressure (altimeter): 29.95 in. Hg (1014 hPa)
Pressure tendency: 0.04 inches (1.2 hPa) lower than three hours ago
ob: KPUB 242053Z 14010KT 10SM CLR 31/12 A2995 RMK AO2 SLP077 T03060117 56012
cycle: 21

Station Type Date Time Source
KPUB TAF 2019/08/24 18:45 UTC NOAA

TAF KPUB 241742Z 2418/2518 VRB06KT P6SM SCT140 BKN220
FM241900 28012KT P6SM SCT200
FM242100 08010KT P6SM SCT120 SCT220
FM250300 VRB06KT P6SM SCT150

Example: see airport list